Time;durP1;ratioP1;P1;durP2;ratioP2;P2;SDS_P1;SDS_P2;PMS_P1;PMS_P2;Temp;Humidity;BMP_temperature;BMP_pressure;BME280_temperature;BME280_humidity;BME280_pressure;Samples;Min_cycle;Max_cycle;Signal;HPM_P1;HPM_P2
2023/08/06 00:00:23;;;;;;;9.15;3.70;;;;;;;20.56;100.00;93495.53;5072437;28;20225;-43
2023/08/06 00:02:50;;;;;;;5.70;3.97;;;;;;;20.67;100.00;93516.25;5085375;28;20197;-45
2023/08/06 00:05:20;;;;;;;5.90;3.33;;;;;;;20.66;100.00;93555.47;5092467;28;20221;-43
2023/08/06 00:07:47;;;;;;;5.13;3.60;;;;;;;20.70;100.00;93570.38;5092808;28;20605;-43
2023/08/06 00:10:14;;;;;;;3.80;3.40;;;;;;;20.71;100.00;93547.78;5091875;28;20673;-43
2023/08/06 00:12:41;;;;;;;6.10;3.78;;;;;;;20.72;100.00;93570.13;5092554;28;20190;-44
2023/08/06 00:15:10;;;;;;;3.75;3.08;;;;;;;20.65;100.00;93551.31;5092521;28;20565;-43
2023/08/06 00:17:37;;;;;;;7.85;4.03;;;;;;;20.83;100.00;93551.16;5092841;28;20669;-43
2023/08/06 00:20:06;;;;;;;5.57;3.22;;;;;;;20.78;100.00;93551.06;5092322;28;20185;-42
2023/08/06 00:22:33;;;;;;;8.75;4.13;;;;;;;20.77;100.00;93552.09;5092284;28;20703;-42
2023/08/06 00:25:00;;;;;;;7.47;4.13;;;;;;;20.80;100.00;93559.41;5092165;28;20192;-43
2023/08/06 00:27:27;;;;;;;6.13;3.60;;;;;;;20.84;100.00;93557.94;5091962;28;20688;-43
2023/08/06 00:29:53;;;;;;;7.65;3.42;;;;;;;20.87;100.00;93556.69;5092018;28;20683;-45
2023/08/06 00:32:22;;;;;;;4.60;3.22;;;;;;;20.95;100.00;93551.16;5091881;28;20262;-44
2023/08/06 00:34:49;;;;;;;4.18;3.33;;;;;;;20.90;100.00;93530.25;5092102;28;20247;-43
2023/08/06 00:37:17;;;;;;;3.70;3.10;;;;;;;20.84;100.00;93529.34;5092084;28;20190;-44
2023/08/06 00:39:44;;;;;;;3.58;3.10;;;;;;;20.77;99.45;93539.09;5092217;28;20213;-44
2023/08/06 00:42:11;;;;;;;4.47;3.50;;;;;;;20.77;99.76;93534.69;5091823;28;20194;-43
2023/08/06 00:44:38;;;;;;;3.42;2.85;;;;;;;20.56;100.00;93492.94;5092023;28;20194;-45
2023/08/06 00:47:06;;;;;;;4.22;3.17;;;;;;;20.83;100.00;93534.78;5091477;28;20222;-44
2023/08/06 00:49:34;;;;;;;4.63;3.47;;;;;;;20.84;99.82;93531.16;5091982;28;20217;-45
2023/08/06 00:52:01;;;;;;;4.07;3.65;;;;;;;20.85;100.00;93524.94;5091356;28;20272;-43
2023/08/06 00:54:28;;;;;;;6.70;4.38;;;;;;;20.68;99.94;93512.66;5091575;28;20185;-44
2023/08/06 00:56:55;;;;;;;8.15;4.30;;;;;;;20.79;100.00;93522.22;5091545;28;20193;-42
2023/08/06 00:59:22;;;;;;;7.18;4.18;;;;;;;20.83;100.00;93512.19;5091528;28;20607;-44
2023/08/06 01:01:50;;;;;;;4.60;4.20;;;;;;;20.82;100.00;93512.41;5091668;28;20185;-43
2023/08/06 01:04:17;;;;;;;5.50;3.83;;;;;;;20.84;100.00;93507.75;5091480;28;20438;-42
2023/08/06 01:06:49;;;;;;;4.25;3.72;;;;;;;20.88;99.94;93501.09;5091280;28;20205;-43
2023/08/06 01:09:33;;;;;;;8.95;4.13;;;;;;;20.83;100.00;93473.19;5090991;28;20182;-44
2023/08/06 01:12:07;;;;;;;4.20;3.80;;;;;;;20.77;100.00;93476.72;5091186;28;20193;-44
2023/08/06 01:14:45;;;;;;;3.90;3.45;;;;;;;20.71;100.00;93480.22;5091443;28;20201;-43
2023/08/06 01:17:13;;;;;;;4.25;3.47;;;;;;;20.72;100.00;93489.59;5090895;28;20189;-42
2023/08/06 01:19:40;;;;;;;5.43;4.15;;;;;;;20.78;100.00;93486.88;5091252;28;20607;-42
2023/08/06 01:22:08;;;;;;;4.25;3.85;;;;;;;20.72;100.00;93494.78;5090952;28;20672;-42
2023/08/06 01:24:35;;;;;;;4.75;3.97;;;;;;;20.61;100.00;93487.81;5091144;28;20197;-44
2023/08/06 01:27:07;;;;;;;6.90;4.47;;;;;;;20.57;100.00;93490.09;5090808;28;20225;-43
2023/08/06 01:29:39;;;;;;;4.65;3.70;;;;;;;20.61;100.00;93485.22;5091322;28;20178;-44
2023/08/06 01:32:09;;;;;;;6.93;3.70;;;;;;;20.60;100.00;93484.44;5090523;28;20193;-42
2023/08/06 01:34:38;;;;;;;4.57;3.90;;;;;;;20.60;100.00;93468.84;5091115;28;20185;-43
2023/08/06 01:37:05;;;;;;;5.25;4.05;;;;;;;20.66;100.00;93459.34;5090655;28;20634;-42
2023/08/06 01:39:35;;;;;;;4.43;3.90;;;;;;;20.64;100.00;93459.59;5090878;28;20262;-43
2023/08/06 01:42:02;;;;;;;4.85;4.10;;;;;;;20.60;100.00;93473.28;5090551;28;20653;-42
2023/08/06 01:44:29;;;;;;;4.90;3.63;;;;;;;20.59;100.00;93469.06;5090638;28;20223;-43
2023/08/06 01:46:56;;;;;;;4.78;4.00;;;;;;;20.64;100.00;93463.97;5090942;28;20233;-43
2023/08/06 01:49:22;;;;;;;3.90;3.60;;;;;;;20.55;100.00;93463.53;5090419;28;20681;-43
2023/08/06 01:51:49;;;;;;;6.68;3.97;;;;;;;20.59;100.00;93475.06;5090465;28;20194;-43
2023/08/06 01:54:16;;;;;;;5.75;4.10;;;;;;;20.58;100.00;93476.06;5090243;28;20201;-43
2023/08/06 01:56:44;;;;;;;6.25;3.80;;;;;;;20.60;100.00;93471.47;5090536;28;20197;-43
2023/08/06 01:59:11;;;;;;;4.55;3.38;;;;;;;20.61;100.00;93467.84;5090254;28;20273;-43
2023/08/06 02:01:38;;;;;;;4.95;3.90;;;;;;;20.59;100.00;93458.69;5090870;28;20193;-44
2023/08/06 02:04:04;;;;;;;4.38;3.90;;;;;;;20.61;100.00;93451.47;5091240;28;20192;-43
2023/08/06 02:06:31;;;;;;;4.40;4.00;;;;;;;20.58;100.00;93438.94;5090346;28;20224;-43
2023/08/06 02:08:58;;;;;;;4.63;3.63;;;;;;;20.61;100.00;93447.06;5090240;28;20201;-43
2023/08/06 02:11:25;;;;;;;4.10;3.78;;;;;;;20.60;100.00;93448.09;5090392;28;20193;-44
2023/08/06 02:13:53;;;;;;;3.40;3.15;;;;;;;20.62;100.00;93461.63;5090006;28;20186;-45
2023/08/06 02:16:19;;;;;;;5.70;3.63;;;;;;;20.60;100.00;93462.88;5090146;28;20638;-43
2023/08/06 02:18:46;;;;;;;7.80;3.92;;;;;;;20.61;100.00;93465.25;5090367;28;20192;-43
2023/08/06 02:21:13;;;;;;;3.58;3.28;;;;;;;20.61;100.00;93472.25;5089713;28;20684;-42
2023/08/06 02:23:40;;;;;;;5.75;3.72;;;;;;;20.60;100.00;93489.66;5090285;28;20287;-43
2023/08/06 02:26:06;;;;;;;10.05;5.05;;;;;;;20.62;100.00;93487.59;5090037;28;20225;-43
2023/08/06 02:28:33;;;;;;;7.25;4.32;;;;;;;20.65;100.00;93457.78;5090093;28;20751;-43
2023/08/06 02:31:01;;;;;;;6.13;3.97;;;;;;;20.66;100.00;93449.75;5089748;28;20306;-43
2023/08/06 02:33:28;;;;;;;5.97;4.10;;;;;;;20.61;100.00;93447.06;5090106;28;20194;-43
2023/08/06 02:36:01;;;;;;;5.75;3.90;;;;;;;20.60;100.00;93462.88;5089849;28;20194;-41
2023/08/06 02:38:27;;;;;;;8.40;4.00;;;;;;;20.16;100.00;93408.72;5089980;28;20205;-43
2023/08/06 02:40:54;;;;;;;5.10;3.80;;;;;;;20.63;100.00;93498.75;5089627;28;20204;-41
2023/08/06 02:43:21;;;;;;;4.68;3.58;;;;;;;20.61;100.00;93498.22;5089770;28;20625;-41
2023/08/06 02:45:48;;;;;;;5.65;3.45;;;;;;;20.58;100.00;93493.47;5089881;28;20193;-42
2023/08/06 02:48:18;;;;;;;5.63;3.75;;;;;;;20.59;100.00;93492.44;5089739;28;20194;-43
2023/08/06 02:50:44;;;;;;;3.40;3.10;;;;;;;20.63;100.00;93478.78;5089915;28;20186;-44
2023/08/06 02:53:11;;;;;;;4.20;3.40;;;;;;;20.66;100.00;93459.34;5090131;28;20181;-44
2023/08/06 02:55:38;;;;;;;5.13;3.20;;;;;;;20.64;100.00;93432.81;5090117;28;20185;-43
2023/08/06 02:58:05;;;;;;;3.63;3.33;;;;;;;20.54;100.00;93426.38;5089842;28;20201;-44
2023/08/06 03:00:31;;;;;;;4.50;3.25;;;;;;;20.54;100.00;93423.00;5089564;28;20196;-43
2023/08/06 03:02:58;;;;;;;4.10;3.47;;;;;;;20.53;100.00;93450.00;5089676;28;20688;-44
2023/08/06 03:05:25;;;;;;;6.80;3.55;;;;;;;20.59;100.00;93430.91;5089913;28;20190;-43
2023/08/06 03:07:52;;;;;;;3.50;3.20;;;;;;;20.63;100.00;93387.06;5089787;28;20217;-43
2023/08/06 03:10:19;;;;;;;5.57;3.58;;;;;;;20.57;100.00;93404.38;5089781;28;20186;-43
2023/08/06 03:12:46;;;;;;;6.97;4.10;;;;;;;20.56;100.00;93441.75;5089785;28;20189;-42
2023/08/06 03:15:13;;;;;;;5.07;3.65;;;;;;;20.16;100.00;93393.13;5089593;28;20194;-42
2023/08/06 03:17:40;;;;;;;6.05;3.50;;;;;;;20.63;100.00;93432.00;5089410;28;20657;-42
2023/08/06 03:20:08;;;;;;;4.45;4.05;;;;;;;20.61;100.00;93389.91;5089910;28;20190;-41
2023/08/06 03:22:36;;;;;;;3.40;3.13;;;;;;;20.60;100.00;93395.34;5089060;28;20638;-42
2023/08/06 03:25:03;;;;;;;4.80;3.50;;;;;;;20.64;100.00;93419.81;5089619;28;20190;-43
2023/08/06 03:27:30;;;;;;;4.55;3.40;;;;;;;20.67;100.00;93421.97;5089409;28;20588;-43
2023/08/06 03:29:56;;;;;;;4.07;3.78;;;;;;;20.73;100.00;93414.03;5089334;28;20217;-49
2023/08/06 03:32:23;;;;;;;4.15;3.70;;;;;;;20.74;100.00;93433.81;5089828;28;20251;-43
2023/08/06 03:34:50;;;;;;;3.63;3.30;;;;;;;20.70;100.00;93452.69;5093331;28;20189;-43
2023/08/06 03:37:17;;;;;;;4.28;3.85;;;;;;;20.71;100.00;93475.03;5093569;28;20186;-43
2023/08/06 03:39:45;;;;;;;4.07;3.22;;;;;;;20.75;100.00;93465.75;5092981;28;20209;-42
2023/08/06 03:42:12;;;;;;;5.05;3.63;;;;;;;20.79;100.00;93457.28;5092928;28;20607;-43
2023/08/06 03:44:39;;;;;;;3.95;3.50;;;;;;;20.83;100.00;93469.81;5092710;28;20259;-45
2023/08/06 03:47:06;;;;;;;4.85;3.60;;;;;;;20.83;100.00;93449.81;5093240;28;20217;-43
2023/08/06 03:49:33;;;;;;;3.90;3.60;;;;;;;20.82;100.00;93453.44;5093168;28;20205;-43
2023/08/06 03:51:59;;;;;;;5.38;3.47;;;;;;;20.88;100.00;93462.09;5093270;28;20565;-44
2023/08/06 03:54:26;;;;;;;6.97;3.35;;;;;;;20.88;100.00;93470.69;5092897;28;20193;-43
2023/08/06 03:56:54;;;;;;;3.90;2.95;;;;;;;20.87;100.00;93457.94;5092793;28;20186;-43
2023/08/06 03:59:21;;;;;;;8.60;3.28;;;;;;;20.91;100.00;93467.63;5093042;28;20190;-43
2023/08/06 04:01:48;;;;;;;4.40;3.53;;;;;;;20.92;100.00;93468.44;5093807;28;20185;-50
2023/08/06 04:04:15;;;;;;;4.05;3.20;;;;;;;20.93;100.00;93468.19;5092511;28;20196;-42
2023/08/06 04:06:41;;;;;;;4.05;3.63;;;;;;;20.92;100.00;93476.22;5092364;28;20209;-42
2023/08/06 04:09:08;;;;;;;3.85;3.47;;;;;;;20.95;100.00;93486.16;5092542;28;20190;-42
2023/08/06 04:11:35;;;;;;;4.03;3.72;;;;;;;20.95;100.00;93483.56;5092050;28;20283;-43
2023/08/06 04:14:03;;;;;;;5.30;3.65;;;;;;;20.95;100.00;93491.38;5092630;28;20186;-44
2023/08/06 04:16:30;;;;;;;4.78;3.40;;;;;;;20.96;100.00;93485.94;5092359;28;20251;-43
2023/08/06 04:18:58;;;;;;;6.15;3.90;;;;;;;21.00;100.00;93488.84;5092514;28;20201;-43
2023/08/06 04:21:25;;;;;;;5.40;4.10;;;;;;;21.08;100.00;93490.31;5091981;28;20186;-44
2023/08/06 04:23:51;;;;;;;5.70;4.18;;;;;;;21.05;100.00;93481.16;5092321;28;20217;-45
2023/08/06 04:26:18;;;;;;;6.03;4.07;;;;;;;20.99;100.00;93482.88;5092108;28;20188;-43
2023/08/06 04:28:45;;;;;;;4.57;4.18;;;;;;;20.83;100.00;93452.41;5092208;28;20189;-42
2023/08/06 04:31:13;;;;;;;5.57;4.55;;;;;;;20.93;100.00;93468.19;5091619;28;20310;-42
2023/08/06 04:33:41;;;;;;;4.65;4.25;;;;;;;20.96;100.00;93466.94;5092412;28;20234;-42
2023/08/06 04:36:08;;;;;;;4.90;4.28;;;;;;;20.97;100.00;93466.69;5091747;28;20255;-42
2023/08/06 04:38:34;;;;;;;6.53;4.15;;;;;;;20.75;100.00;93424.97;5091821;28;20189;-42
2023/08/06 04:41:03;;;;;;;4.60;3.50;;;;;;;21.08;100.00;93452.09;5091884;28;20194;-42
2023/08/06 04:43:30;;;;;;;4.25;3.85;;;;;;;21.14;100.00;93443.34;5091473;28;20200;-42
2023/08/06 04:45:56;;;;;;;4.32;3.92;;;;;;;21.20;100.00;93432.03;5092061;28;20190;-45
2023/08/06 04:48:24;;;;;;;5.88;4.47;;;;;;;21.24;100.00;93429.75;5091438;28;20279;-44
2023/08/06 04:50:52;;;;;;;6.05;4.35;;;;;;;21.29;100.00;93425.44;5091995;28;20269;-43
2023/08/06 04:53:19;;;;;;;5.30;4.25;;;;;;;21.28;100.00;93408.22;5091364;28;20205;-44
2023/08/06 04:55:45;;;;;;;4.97;4.45;;;;;;;21.16;100.00;93380.75;5091415;28;20190;-42
2023/08/06 04:58:13;;;;;;;5.18;3.90;;;;;;;21.47;100.00;93405.47;5091517;28;20185;-42
2023/08/06 05:00:40;;;;;;;5.45;4.03;;;;;;;21.29;100.00;93370.03;5091280;28;20193;-43
2023/08/06 05:03:07;;;;;;;4.18;3.63;;;;;;;21.38;100.00;93368.66;5091588;28;20276;-43
2023/08/06 05:05:35;;;;;;;4.63;3.33;;;;;;;21.58;100.00;93394.16;5091432;28;20197;-42
2023/08/06 05:08:02;;;;;;;4.63;3.20;;;;;;;21.65;100.00;93396.63;5091449;28;20209;-44
2023/08/06 05:10:29;;;;;;;3.90;3.40;;;;;;;21.79;100.00;93397.88;5091076;28;20197;-42
2023/08/06 05:12:56;;;;;;;6.35;2.78;;;;;;;22.20;100.00;93401.06;5091189;28;20217;-44
2023/08/06 05:15:25;;;;;;;5.65;4.55;;;;;;;22.68;98.31;93404.78;5091409;28;20285;-43
2023/08/06 05:17:52;;;;;;;7.28;5.07;;;;;;;23.08;96.40;93408.84;5091251;28;20182;-43
2023/08/06 05:20:18;;;;;;;8.32;6.25;;;;;;;23.49;95.00;93402.97;5091475;28;20186;-43
2023/08/06 05:22:47;;;;;;;7.72;6.38;;;;;;;23.99;92.84;93411.44;5091095;28;20186;-43
2023/08/06 05:25:15;;;;;;;11.18;7.72;;;;;;;24.35;88.94;93420.25;5090823;28;20204;-44
2023/08/06 05:27:42;;;;;;;7.85;7.15;;;;;;;24.58;87.77;93413.88;5091092;28;20256;-45
2023/08/06 05:30:10;;;;;;;10.32;8.07;;;;;;;24.81;88.74;93411.84;5090723;28;20226;-44
2023/08/06 05:32:37;;;;;;;10.23;7.70;;;;;;;25.14;88.13;93398.38;5091341;28;20529;-46
2023/08/06 05:35:04;;;;;;;10.90;6.85;;;;;;;25.58;84.32;93404.94;5090993;28;20189;-43
2023/08/06 05:37:31;;;;;;;7.30;6.57;;;;;;;25.85;82.65;93412.53;5090913;28;20185;-44
2023/08/06 05:39:59;;;;;;;8.82;6.82;;;;;;;26.16;80.16;93411.44;5090950;28;20589;-43
2023/08/06 05:42:26;;;;;;;6.85;6.15;;;;;;;26.37;80.40;93401.69;5092376;28;20190;-44
2023/08/06 05:44:52;;;;;;;10.35;6.57;;;;;;;26.50;81.69;93406.38;5090756;28;20182;-44
2023/08/06 05:47:20;;;;;;;9.32;7.70;;;;;;;26.55;78.42;93408.22;5090641;28;20213;-44
2023/08/06 05:49:47;;;;;;;9.10;8.20;;;;;;;26.38;77.47;93412.94;5090360;28;20640;-43
2023/08/06 05:52:13;;;;;;;6.93;6.32;;;;;;;26.27;77.34;93404.34;5090409;28;20213;-44
2023/08/06 05:54:41;;;;;;;5.35;4.88;;;;;;;26.19;74.61;93415.38;5090310;28;20197;-43
2023/08/06 05:57:09;;;;;;;6.00;5.50;;;;;;;26.16;75.49;93423.75;5090113;28;20276;-45
2023/08/06 05:59:36;;;;;;;4.90;4.40;;;;;;;26.22;76.10;93426.13;5090616;28;20186;-44
2023/08/06 06:02:03;;;;;;;6.72;3.75;;;;;;;26.47;74.83;93437.63;5090255;28;20193;-44
2023/08/06 06:04:30;;;;;;;3.97;3.10;;;;;;;26.47;71.49;93416.66;5090492;28;20189;-44
2023/08/06 06:06:56;;;;;;;3.75;3.15;;;;;;;26.50;73.63;93426.59;5090017;28;20299;-44
2023/08/06 06:09:23;;;;;;;4.28;3.53;;;;;;;26.69;71.41;93445.16;5090134;28;20194;-44
2023/08/06 06:11:50;;;;;;;2.85;2.65;;;;;;;26.81;68.92;93448.22;5090239;28;20205;-44
2023/08/06 06:14:18;;;;;;;5.50;3.45;;;;;;;26.75;69.99;93441.44;5090343;28;20652;-43
2023/08/06 06:16:45;;;;;;;3.17;2.88;;;;;;;26.77;69.96;93441.97;5090071;28;20879;-44
2023/08/06 06:19:12;;;;;;;2.97;2.63;;;;;;;26.76;69.61;93448.25;5090229;28;20593;-44
2023/08/06 06:21:39;;;;;;;3.45;3.20;;;;;;;26.72;68.48;93458.50;5089622;28;20201;-45
2023/08/06 06:24:07;;;;;;;3.85;3.15;;;;;;;26.82;66.97;93459.53;5090015;28;20273;-43
2023/08/06 06:26:34;;;;;;;3.42;2.83;;;;;;;26.76;67.63;93464.78;5090074;28;20253;-45
2023/08/06 06:29:01;;;;;;;5.63;2.70;;;;;;;26.68;67.08;93475.81;5090140;28;20229;-44
2023/08/06 06:31:29;;;;;;;2.85;2.65;;;;;;;26.45;67.47;93469.34;5089895;28;20229;-44
2023/08/06 06:33:56;;;;;;;3.17;2.58;;;;;;;26.22;68.04;93467.28;5089859;28;20271;-45
2023/08/06 06:36:23;;;;;;;2.70;2.50;;;;;;;26.00;68.88;93470.19;5089631;28;20242;-45
2023/08/06 06:38:50;;;;;;;2.78;2.58;;;;;;;25.74;69.61;93478.00;5089784;28;20263;-43
2023/08/06 06:41:17;;;;;;;5.68;3.15;;;;;;;25.45;72.27;93493.41;5090279;28;20201;-44
2023/08/06 06:43:43;;;;;;;3.22;2.88;;;;;;;25.17;74.83;93499.91;5090631;28;20335;-43
2023/08/06 06:46:10;;;;;;;5.80;3.20;;;;;;;25.02;76.31;93499.81;5090269;28;20190;-44
2023/08/06 06:48:38;;;;;;;5.60;3.30;;;;;;;24.92;73.41;93503.16;5089561;28;20210;-45
2023/08/06 06:51:05;;;;;;;3.70;3.40;;;;;;;24.50;76.01;93474.47;5089838;28;20691;-42
2023/08/06 06:53:32;;;;;;;5.32;3.72;;;;;;;24.63;75.43;93501.97;5089962;28;20212;-44
2023/08/06 06:56:03;;;;;;;4.35;3.95;;;;;;;24.59;77.02;93509.53;5090258;28;20192;-44
2023/08/06 06:58:30;;;;;;;3.70;3.40;;;;;;;24.81;76.59;93526.91;5089725;28;20634;-42
2023/08/06 07:00:57;;;;;;;4.20;3.20;;;;;;;25.17;75.02;93518.22;5089885;28;20197;-43
2023/08/06 07:03:24;;;;;;;3.28;2.97;;;;;;;25.61;71.27;93523.03;5089581;28;20194;-43
2023/08/06 07:05:52;;;;;;;5.65;3.80;;;;;;;25.27;70.83;93452.81;5089495;28;20224;-43
2023/08/06 07:08:18;;;;;;;4.88;3.65;;;;;;;25.77;69.39;93529.09;5093521;28;20229;-45
2023/08/06 07:10:45;;;;;;;3.00;2.80;;;;;;;25.88;68.77;93535.13;5093852;28;20193;-43
2023/08/06 07:13:12;;;;;;;3.13;2.83;;;;;;;26.26;66.13;93533.84;5094112;28;20182;-43
2023/08/06 07:15:39;;;;;;;2.95;2.60;;;;;;;26.63;62.89;93536.16;5093282;28;20194;-44
2023/08/06 07:18:05;;;;;;;3.00;2.67;;;;;;;27.02;64.61;93536.31;5093712;28;20640;-43
2023/08/06 07:20:34;;;;;;;2.80;2.60;;;;;;;27.33;62.00;93543.31;5093294;28;20657;-44
2023/08/06 07:23:02;;;;;;;3.78;2.53;;;;;;;27.51;60.65;93537.47;5093509;28;20194;-42
2023/08/06 07:25:29;;;;;;;2.40;2.25;;;;;;;27.65;57.69;93532.38;5093545;28;20217;-45
2023/08/06 07:27:56;;;;;;;2.92;2.72;;;;;;;27.79;58.18;93537.84;5093173;28;20214;-44
2023/08/06 07:30:23;;;;;;;2.83;2.63;;;;;;;27.95;57.03;93541.94;5092911;28;20349;-42
2023/08/06 07:32:50;;;;;;;3.63;2.70;;;;;;;27.97;56.97;93547.69;5093462;28;20189;-43
2023/08/06 07:35:16;;;;;;;2.78;2.58;;;;;;;28.09;58.03;93545.50;5093297;28;20189;-43
2023/08/06 07:37:43;;;;;;;2.83;2.50;;;;;;;28.25;56.39;93535.66;5093925;28;20209;-44
2023/08/06 07:40:13;;;;;;;5.32;2.55;;;;;;;28.30;56.11;93540.88;5092654;28;20186;-43
2023/08/06 07:42:39;;;;;;;4.32;2.42;;;;;;;28.30;55.38;93530.38;5093258;28;20268;-43
2023/08/06 07:45:08;;;;;;;3.05;2.72;;;;;;;28.13;55.44;93522.09;5093101;28;20628;-44
2023/08/06 07:47:34;;;;;;;3.50;2.30;;;;;;;28.46;54.72;93536.31;5092977;28;20225;-43
2023/08/06 07:50:01;;;;;;;4.78;2.38;;;;;;;28.60;54.49;93531.19;5092713;28;20661;-44
2023/08/06 07:52:28;;;;;;;2.83;2.60;;;;;;;28.91;55.94;93527.16;5092698;28;20200;-43
2023/08/06 07:54:55;;;;;;;3.90;2.50;;;;;;;29.12;52.27;93521.69;5092809;28;20189;-44
2023/08/06 07:57:23;;;;;;;2.78;2.58;;;;;;;29.30;53.72;93523.56;5092576;28;20190;-42
2023/08/06 07:59:50;;;;;;;2.90;2.70;;;;;;;29.47;51.32;93531.00;5092679;28;20190;-45
2023/08/06 08:02:16;;;;;;;4.25;2.63;;;;;;;29.56;52.94;93531.97;5092707;28;20212;-43
2023/08/06 08:04:43;;;;;;;3.53;2.90;;;;;;;29.91;53.37;93520.13;5092490;28;20243;-44
2023/08/06 08:07:11;;;;;;;3.28;2.97;;;;;;;30.09;52.77;93501.91;5092366;28;20190;-44
2023/08/06 08:09:37;;;;;;;3.08;2.65;;;;;;;30.37;49.00;93518.66;5092470;28;20229;-44
2023/08/06 08:12:05;;;;;;;3.85;3.40;;;;;;;30.43;50.11;93522.75;5092651;28;20190;-43
2023/08/06 08:14:35;;;;;;;4.40;2.30;;;;;;;30.48;48.81;93525.31;5092586;28;20197;-44
2023/08/06 08:17:03;;;;;;;3.83;2.53;;;;;;;30.15;48.75;93529.81;5092291;28;20193;-44
2023/08/06 08:19:29;;;;;;;3.47;2.20;;;;;;;30.05;49.78;93520.16;5091327;28;20233;-44
2023/08/06 08:21:56;;;;;;;3.42;2.53;;;;;;;29.95;48.92;93529.03;5092576;28;20193;-43
2023/08/06 08:24:24;;;;;;;4.70;2.65;;;;;;;29.97;50.68;93526.13;5092398;28;20190;-44
2023/08/06 08:26:51;;;;;;;3.20;2.90;;;;;;;30.07;50.13;93530.44;5092374;28;20297;-44
2023/08/06 08:29:18;;;;;;;4.90;2.90;;;;;;;30.26;48.66;93525.94;5092112;28;20224;-44
2023/08/06 08:31:48;;;;;;;4.25;2.80;;;;;;;30.29;48.62;93530.63;5092337;28;20232;-44
2023/08/06 08:34:15;;;;;;;3.45;2.30;;;;;;;30.33;48.66;93536.91;5092086;28;20212;-46
2023/08/06 08:36:42;;;;;;;2.58;2.38;;;;;;;30.34;48.45;93521.84;5092045;28;20265;-45
2023/08/06 08:39:09;;;;;;;3.28;2.90;;;;;;;30.23;49.16;93524.66;5091566;28;20190;-43
2023/08/06 08:41:38;;;;;;;2.67;2.47;;;;;;;30.14;50.00;93523.78;5092054;28;20251;-43
2023/08/06 08:44:10;;;;;;;3.08;2.78;;;;;;;30.12;50.48;93522.44;5091639;28;20193;-43
2023/08/06 08:46:38;;;;;;;3.25;2.85;;;;;;;30.01;52.13;93519.19;5091790;28;20285;-44
2023/08/06 08:49:07;;;;;;;2.83;2.63;;;;;;;29.87;52.11;93516.50;5091709;28;20225;-44
2023/08/06 08:51:34;;;;;;;3.92;3.05;;;;;;;29.66;51.51;93515.22;5092092;28;20189;-44
2023/08/06 08:54:04;;;;;;;4.50;3.05;;;;;;;29.40;50.50;93512.13;5091404;28;20429;-46
2023/08/06 08:56:31;;;;;;;3.20;2.50;;;;;;;29.38;50.01;93509.00;5091648;28;20599;-42
2023/08/06 08:58:58;;;;;;;3.10;2.80;;;;;;;29.34;50.91;93514.03;5091283;28;20197;-44
2023/08/06 09:01:26;;;;;;;3.20;2.90;;;;;;;29.40;51.28;93507.63;5091111;28;20197;-44
2023/08/06 09:03:54;;;;;;;2.88;2.55;;;;;;;29.38;50.03;93506.34;5091469;28;20189;-44
2023/08/06 09:06:25;;;;;;;3.25;3.05;;;;;;;29.18;50.41;93499.50;5091661;28;20277;-50
2023/08/06 09:08:57;;;;;;;2.97;2.75;;;;;;;29.07;52.19;93503.34;5090998;28;20316;-43
2023/08/06 09:11:24;;;;;;;2.83;2.42;;;;;;;29.13;50.82;93502.97;5091338;28;20726;-44
2023/08/06 09:13:51;;;;;;;3.15;2.80;;;;;;;29.23;51.18;93497.59;5090933;28;20190;-44
2023/08/06 09:16:18;;;;;;;3.08;2.88;;;;;;;29.28;52.21;93499.38;5091196;28;20658;-44
2023/08/06 09:18:45;;;;;;;3.17;2.88;;;;;;;29.24;52.71;93504.44;5091064;28;20201;-44
2023/08/06 09:21:16;;;;;;;3.05;2.80;;;;;;;29.32;51.52;93489.03;5090844;28;20546;-43
2023/08/06 09:23:44;;;;;;;3.35;3.15;;;;;;;29.31;50.83;93488.25;5091074;28;20200;-45
2023/08/06 09:26:13;;;;;;;3.65;2.50;;;;;;;29.40;51.34;93483.91;5090910;28;20194;-43
2023/08/06 09:28:42;;;;;;;3.03;2.30;;;;;;;29.56;49.49;93484.53;5090877;28;20311;-43
2023/08/06 09:31:10;;;;;;;2.63;2.35;;;;;;;29.51;49.45;93476.66;5091079;28;20251;-43
2023/08/06 09:33:38;;;;;;;3.05;2.35;;;;;;;29.65;48.25;93480.19;5091176;28;20285;-44
2023/08/06 09:36:12;;;;;;;4.30;2.17;;;;;;;29.72;45.88;93477.19;5090853;28;20202;-44
2023/08/06 09:38:40;;;;;;;2.28;2.03;;;;;;;29.65;45.46;93482.81;5090857;28;20223;-45
2023/08/06 09:41:08;;;;;;;2.53;2.33;;;;;;;29.54;46.02;93465.56;5090517;28;20224;-44
2023/08/06 09:43:42;;;;;;;2.80;2.20;;;;;;;29.24;47.37;93448.34;5090756;28;20190;-43
2023/08/06 09:46:14;;;;;;;4.05;2.40;;;;;;;29.29;47.68;93479.09;5090575;28;20655;-42
2023/08/06 09:48:42;;;;;;;2.33;2.13;;;;;;;29.07;49.56;93480.41;5090774;28;20217;-44
2023/08/06 09:51:09;;;;;;;2.72;2.50;;;;;;;28.97;50.20;93477.88;5090224;28;20666;-44
2023/08/06 09:53:38;;;;;;;2.47;2.38;;;;;;;28.97;50.23;93477.88;5090556;28;20225;-43
2023/08/06 09:56:05;;;;;;;2.42;2.22;;;;;;;28.83;49.93;93466.47;5090056;28;20189;-44
2023/08/06 09:58:34;;;;;;;2.60;2.40;;;;;;;28.99;50.68;93475.78;5090571;28;20185;-43
2023/08/06 10:01:02;;;;;;;2.55;2.25;;;;;;;29.21;49.84;93483.13;5089929;28;20193;-44
2023/08/06 10:03:31;;;;;;;2.00;1.90;;;;;;;29.31;48.62;93482.22;5090545;28;20189;-43
2023/08/06 10:06:01;;;;;;;2.40;2.20;;;;;;;29.29;49.40;93494.91;5090124;28;20197;-43
2023/08/06 10:08:28;;;;;;;3.10;2.08;;;;;;;29.18;48.91;93496.84;5090302;28;20366;-44
2023/08/06 10:10:57;;;;;;;2.33;2.13;;;;;;;29.07;48.78;93498.06;5089998;28;20189;-44
2023/08/06 10:13:25;;;;;;;2.92;2.10;;;;;;;28.90;48.30;93496.66;5090069;28;20201;-43
2023/08/06 10:15:54;;;;;;;3.45;2.28;;;;;;;28.89;49.55;93502.19;5089703;28;20193;-44
2023/08/06 10:18:22;;;;;;;2.20;2.00;;;;;;;29.10;48.93;93495.66;5090324;28;20589;-43
2023/08/06 10:20:49;;;;;;;2.85;2.22;;;;;;;29.14;47.63;93483.47;5090034;28;20193;-44
2023/08/06 10:23:17;;;;;;;2.65;1.95;;;;;;;29.16;49.08;93483.22;5090041;28;20185;-44
2023/08/06 10:25:44;;;;;;;3.58;1.85;;;;;;;29.32;47.08;93496.94;5090115;28;20601;-42
2023/08/06 10:28:13;;;;;;;6.55;2.25;;;;;;;29.21;47.39;93485.78;5089751;28;20577;-43
2023/08/06 10:30:44;;;;;;;2.67;2.40;;;;;;;29.16;46.44;93493.75;5090006;28;20290;-46
2023/08/06 10:33:12;;;;;;;3.90;2.22;;;;;;;29.05;47.04;93498.34;5089870;28;20289;-46
2023/08/06 10:35:43;;;;;;;2.35;2.22;;;;;;;28.85;46.83;93493.28;5089936;28;20276;-43
2023/08/06 10:38:11;;;;;;;2.35;2.15;;;;;;;28.74;48.04;93505.75;5089470;28;20233;-43
2023/08/06 10:40:40;;;;;;;2.53;2.33;;;;;;;28.54;49.74;93506.78;5089710;28;20193;-44
2023/08/06 10:43:10;;;;;;;2.28;2.08;;;;;;;28.43;50.77;93507.94;5089003;28;20190;-42
2023/08/06 10:45:37;;;;;;;4.20;2.00;;;;;;;28.31;51.59;93510.88;5089733;28;20619;-43
2023/08/06 10:48:05;;;;;;;2.17;2.00;;;;;;;28.25;52.06;93522.53;5089663;28;20206;-46
2023/08/06 10:50:33;;;;;;;2.22;2.00;;;;;;;28.20;52.00;93520.72;5089654;28;20213;-42
2023/08/06 10:53:05;;;;;;;2.20;2.00;;;;;;;28.01;52.90;93520.59;5089601;28;20190;-45
2023/08/06 10:55:32;;;;;;;3.03;2.72;;;;;;;27.99;53.07;93521.94;5090087;28;20264;-45
2023/08/06 10:57:59;;;;;;;2.83;2.53;;;;;;;28.05;53.06;93520.84;5089619;28;20627;-44
2023/08/06 11:00:26;;;;;;;3.85;2.40;;;;;;;28.12;53.66;93523.16;5089510;28;20190;-44
2023/08/06 11:02:54;;;;;;;2.70;2.50;;;;;;;28.24;53.33;93540.16;5089329;28;20189;-45
2023/08/06 11:05:21;;;;;;;2.70;2.50;;;;;;;28.40;52.71;93540.03;5089518;28;20186;-44
2023/08/06 11:07:51;;;;;;;2.60;2.40;;;;;;;28.22;51.62;93515.19;5089437;28;20194;-45
2023/08/06 11:10:18;;;;;;;3.88;2.45;;;;;;;28.29;52.27;93536.69;5089458;28;20245;-43
2023/08/06 11:12:45;;;;;;;2.72;2.45;;;;;;;28.35;52.10;93534.78;5089274;28;20262;-43
2023/08/06 11:15:11;;;;;;;3.05;2.75;;;;;;;28.30;55.09;93540.09;5089461;28;20224;-44
2023/08/06 11:17:41;;;;;;;3.00;2.80;;;;;;;27.99;54.99;93556.09;5089429;28;20193;-43
2023/08/06 11:20:09;;;;;;;12.50;3.40;;;;;;;27.70;58.63;93569.91;5089507;28;20213;-44
2023/08/06 11:22:37;;;;;;;3.83;3.40;;;;;;;27.33;61.21;93574.81;5090002;28;20190;-44
2023/08/06 11:25:07;;;;;;;4.28;2.97;;;;;;;27.01;61.96;93565.47;5089190;28;20281;-52
2023/08/06 11:27:34;;;;;;;4.95;3.08;;;;;;;26.71;64.40;93561.84;5089774;28;20197;-44
2023/08/06 11:30:01;;;;;;;4.95;3.10;;;;;;;26.41;66.98;93549.53;5089017;28;20294;-45